Bellshill, United Kingdom
Current Conditions -  °F | °C
As of 1:50 AM on Saturday 20 Dec 2014 (Local Time) from EGPF Reporting Station
Scattered Clouds Scattered Clouds  
Wind Chill: 35°   Ceiling: Unl
Heat Index: 43°   Visibility: 6mi
Dew Point: 37°   Wind: 18mph
Humidity: 81%   Direction: 280°W
Pressure: 29.85"   Gusts: NA
Location:  55.82°N, 4.03°W
Report Text: EGPF 200150Z AUTO 28016KT 9999 FEW015/// SCT028/// //////CB 06/03 Q1011 RERA
Loading
Personal Weather Stations






























Interactive Weather Map New forecast layout! Learn more

10-Day Weather Forecast

Advertisements
Track Severe Weather on mobile